Time;durP1;ratioP1;P1;durP2;ratioP2;P2;SDS_P1;SDS_P2;PMS_P1;PMS_P2;Temp;Humidity;BMP_temperature;BMP_pressure;BME280_temperature;BME280_humidity;BME280_pressure;Samples;Min_cycle;Max_cycle;Signal;HPM_P1;HPM_P2
2021/04/20 00:00:53;;;;;;;67.28;44.20;;;;;;;;;;5133232;27;20034;-70
2021/04/20 00:03:19;;;;;;;64.47;42.42;;;;;;;;;;5127170;27;20039;-70
2021/04/20 00:05:45;;;;;;;62.90;42.72;;;;;;;;;;5125406;28;20031;-70
2021/04/20 00:08:11;;;;;;;64.30;41.88;;;;;;;;;;5149270;27;20046;-70
2021/04/20 00:10:37;;;;;;;64.03;42.17;;;;;;;;;;5140449;27;20035;-70
2021/04/20 00:13:04;;;;;;;58.63;39.63;;;;;;;;;;5132778;27;20112;-70
2021/04/20 00:15:31;;;;;;;68.45;42.72;;;;;;;;;;5147581;27;20047;-70
2021/04/20 00:17:58;;;;;;;65.68;43.17;;;;;;;;;;5139993;27;20043;-71
2021/04/20 00:20:25;;;;;;;64.43;42.78;;;;;;;;;;5151443;27;20060;-70
2021/04/20 00:22:52;;;;;;;60.65;40.95;;;;;;;;;;5144589;27;20074;-70
2021/04/20 00:25:19;;;;;;;69.18;45.47;;;;;;;;;;5140861;27;20117;-70
2021/04/20 00:27:45;;;;;;;55.28;38.42;;;;;;;;;;5154537;27;20042;-70
2021/04/20 00:30:12;;;;;;;58.50;42.33;;;;;;;;;;5151523;27;20035;-70
2021/04/20 00:32:38;;;;;;;58.88;39.90;;;;;;;;;;5154403;27;20050;-70
2021/04/20 00:35:05;;;;;;;60.70;41.80;;;;;;;;;;5153967;27;20501;-70
2021/04/20 00:37:32;;;;;;;62.88;43.03;;;;;;;;;;5151067;27;20446;-70
2021/04/20 00:39:59;;;;;;;61.90;41.22;;;;;;;;;;5154848;27;20043;-71
2021/04/20 00:42:26;;;;;;;64.80;42.60;;;;;;;;;;5155531;27;20102;-70
2021/04/20 00:44:54;;;;;;;64.55;41.00;;;;;;;;;;5153470;27;20035;-69
2021/04/20 00:47:20;;;;;;;58.50;40.08;;;;;;;;;;5152353;27;20047;-70
2021/04/20 00:49:46;;;;;;;56.63;39.10;;;;;;;;;;5155114;27;20060;-70
2021/04/20 00:52:13;;;;;;;53.40;37.80;;;;;;;;;;5138530;27;20058;-70
2021/04/20 00:54:39;;;;;;;56.17;37.85;;;;;;;;;;5151387;27;20122;-70
2021/04/20 00:57:07;;;;;;;57.95;39.15;;;;;;;;;;5131501;27;20038;-70
2021/04/20 00:59:33;;;;;;;58.00;39.90;;;;;;;;;;5136517;27;20095;-69
2021/04/20 01:01:59;;;;;;;64.40;41.47;;;;;;;;;;5126891;27;20066;-70
2021/04/20 01:04:25;;;;;;;61.97;41.65;;;;;;;;;;5148063;27;20065;-70
2021/04/20 01:06:51;;;;;;;71.63;42.88;;;;;;;;;;5131108;27;20042;-70
2021/04/20 01:09:18;;;;;;;55.88;38.70;;;;;;;;;;5152852;27;20138;-70
2021/04/20 01:11:45;;;;;;;63.92;41.78;;;;;;;;;;5151057;27;20538;-70
2021/04/20 01:14:11;;;;;;;53.10;38.00;;;;;;;;;;5125955;27;20523;-70
2021/04/20 01:16:37;;;;;;;57.10;38.40;;;;;;;;;;5152723;27;20046;-70
2021/04/20 01:19:06;;;;;;;61.83;38.97;;;;;;;;;;5155129;27;20038;-71
2021/04/20 01:21:33;;;;;;;63.40;40.30;;;;;;;;;;5147225;27;20074;-70
2021/04/20 01:24:08;;;;;;;66.35;43.72;;;;;;;;;;5146067;27;20111;-70
2021/04/20 01:26:36;;;;;;;65.72;42.50;;;;;;;;;;5152465;27;20039;-69
2021/04/20 01:29:03;;;;;;;68.57;42.83;;;;;;;;;;5144374;27;20122;-70
2021/04/20 01:31:30;;;;;;;64.32;41.90;;;;;;;;;;5138852;27;20039;-69
2021/04/20 01:33:57;;;;;;;59.25;40.28;;;;;;;;;;5141478;27;20046;-70
2021/04/20 01:36:24;;;;;;;57.17;38.22;;;;;;;;;;5145243;27;21328;-70
2021/04/20 01:38:51;;;;;;;62.50;40.90;;;;;;;;;;5136982;27;20039;-70
2021/04/20 01:41:18;;;;;;;66.93;42.97;;;;;;;;;;5126079;27;20066;-70
2021/04/20 01:43:45;;;;;;;62.97;41.20;;;;;;;;;;5143457;27;20135;-70
2021/04/20 01:46:11;;;;;;;63.90;42.53;;;;;;;;;;5125453;27;20035;-70
2021/04/20 01:48:37;;;;;;;61.30;42.25;;;;;;;;;;5117269;27;20086;-70
2021/04/20 01:51:04;;;;;;;54.10;38.13;;;;;;;;;;5145973;27;20068;-70
2021/04/20 01:53:31;;;;;;;63.97;41.47;;;;;;;;;;5145068;27;20123;-70
2021/04/20 01:56:01;;;;;;;64.13;40.95;;;;;;;;;;5145330;27;20126;-70
2021/04/20 01:58:28;;;;;;;62.97;40.53;;;;;;;;;;5122977;27;20248;-70
2021/04/20 02:00:55;;;;;;;67.40;43.03;;;;;;;;;;5148133;27;20068;-70
2021/04/20 02:03:22;;;;;;;69.10;42.75;;;;;;;;;;5118351;27;20531;-70
2021/04/20 02:05:49;;;;;;;69.95;42.83;;;;;;;;;;5128098;27;20478;-70
2021/04/20 02:08:15;;;;;;;67.47;41.35;;;;;;;;;;5149319;27;20054;-69
2021/04/20 02:10:42;;;;;;;65.82;42.17;;;;;;;;;;5148273;27;20043;-69
2021/04/20 02:13:08;;;;;;;71.50;43.08;;;;;;;;;;5134439;27;20092;-69
2021/04/20 02:15:34;;;;;;;76.55;46.67;;;;;;;;;;5154593;27;20124;-71
2021/04/20 02:18:01;;;;;;;67.65;43.25;;;;;;;;;;5140822;27;20042;-69
2021/04/20 02:20:29;;;;;;;65.53;43.53;;;;;;;;;;5134502;27;20051;-69
2021/04/20 02:22:56;;;;;;;61.25;40.90;;;;;;;;;;5148942;27;20054;-69
2021/04/20 02:25:23;;;;;;;69.35;43.88;;;;;;;;;;5148574;27;20054;-69
2021/04/20 02:27:49;;;;;;;74.00;44.28;;;;;;;;;;5138748;27;20038;-69
2021/04/20 02:30:16;;;;;;;71.50;43.95;;;;;;;;;;5115853;27;20031;-69
2021/04/20 02:32:43;;;;;;;78.68;45.30;;;;;;;;;;5151226;27;20043;-69
2021/04/20 02:35:13;;;;;;;75.40;45.67;;;;;;;;;;5117941;27;20440;-69
2021/04/20 02:37:40;;;;;;;71.57;43.92;;;;;;;;;;5140799;27;20027;-69
2021/04/20 02:40:07;;;;;;;69.05;41.40;;;;;;;;;;5150697;27;20068;-69
2021/04/20 02:42:34;;;;;;;73.07;44.15;;;;;;;;;;5123459;27;20039;-69
2021/04/20 02:45:01;;;;;;;65.25;41.55;;;;;;;;;;5141420;27;20046;-69
2021/04/20 02:47:28;;;;;;;62.30;40.95;;;;;;;;;;5144915;27;20077;-69
2021/04/20 02:49:55;;;;;;;67.35;43.55;;;;;;;;;;5143408;27;20469;-69
2021/04/20 02:52:21;;;;;;;64.25;41.47;;;;;;;;;;5132311;27;20039;-69
2021/04/20 02:54:48;;;;;;;71.70;43.45;;;;;;;;;;5146836;27;20043;-70
2021/04/20 02:57:15;;;;;;;73.53;41.72;;;;;;;;;;5146577;27;20039;-71
2021/04/20 02:59:41;;;;;;;65.85;42.75;;;;;;;;;;5153509;27;20031;-70
2021/04/20 03:02:08;;;;;;;60.97;40.05;;;;;;;;;;5130846;27;20050;-70
2021/04/20 03:04:34;;;;;;;66.25;42.05;;;;;;;;;;5138920;27;20198;-70
2021/04/20 03:07:00;;;;;;;80.25;45.13;;;;;;;;;;5143322;27;20085;-70
2021/04/20 03:09:26;;;;;;;70.38;42.13;;;;;;;;;;5138138;27;20473;-70
2021/04/20 03:11:59;;;;;;;68.05;41.42;;;;;;;;;;5139423;27;20038;-70
2021/04/20 03:14:27;;;;;;;67.43;42.85;;;;;;;;;;5132628;27;20443;-70
2021/04/20 03:16:54;;;;;;;68.88;43.40;;;;;;;;;;5141952;27;20560;-71
2021/04/20 03:19:20;;;;;;;72.93;44.38;;;;;;;;;;5138576;27;20039;-71
2021/04/20 03:21:48;;;;;;;70.80;43.95;;;;;;;;;;5139637;27;20046;-70
2021/04/20 03:24:33;;;;;;;77.63;45.80;;;;;;;;;;5129454;27;20070;-71
2021/04/20 03:27:00;;;;;;;74.22;45.72;;;;;;;;;;5151584;27;20064;-70
2021/04/20 03:29:26;;;;;;;76.82;47.95;;;;;;;;;;5131947;27;20039;-70
2021/04/20 03:31:53;;;;;;;76.50;46.30;;;;;;;;;;5140151;27;20145;-70
2021/04/20 03:34:32;;;;;;;73.20;44.95;;;;;;;;;;5138779;27;20118;-71
2021/04/20 03:37:10;;;;;;;73.57;43.65;;;;;;;;;;5142021;27;20065;-70
2021/04/20 03:39:39;;;;;;;80.15;46.50;;;;;;;;;;5148782;27;20066;-70
2021/04/20 03:42:11;;;;;;;70.28;44.63;;;;;;;;;;5151648;27;20039;-70
2021/04/20 03:44:45;;;;;;;70.25;44.00;;;;;;;;;;5149370;27;20051;-71
2021/04/20 03:47:16;;;;;;;77.70;47.30;;;;;;;;;;5137740;27;20035;-70
2021/04/20 03:49:44;;;;;;;78.78;46.22;;;;;;;;;;5148522;27;20039;-71
2021/04/20 03:52:23;;;;;;;90.57;51.47;;;;;;;;;;5152035;27;20465;-71
2021/04/20 03:54:51;;;;;;;71.40;44.13;;;;;;;;;;5142659;27;20039;-71
2021/04/20 03:57:18;;;;;;;73.88;46.30;;;;;;;;;;5142112;27;20046;-71
2021/04/20 03:59:46;;;;;;;83.03;47.42;;;;;;;;;;5149125;27;20088;-70
2021/04/20 04:02:13;;;;;;;76.63;46.53;;;;;;;;;;5156051;27;20514;-70
2021/04/20 04:04:42;;;;;;;66.95;42.45;;;;;;;;;;5134753;27;20035;-70
2021/04/20 04:07:09;;;;;;;78.30;46.90;;;;;;;;;;5150654;27;20126;-70
2021/04/20 04:09:36;;;;;;;74.25;45.35;;;;;;;;;;5143333;27;20064;-70
2021/04/20 04:12:05;;;;;;;77.20;43.47;;;;;;;;;;5156075;27;20058;-70
2021/04/20 04:14:32;;;;;;;75.13;44.78;;;;;;;;;;5152488;27;20034;-70
2021/04/20 04:17:00;;;;;;;72.47;45.00;;;;;;;;;;5136540;27;20484;-70
2021/04/20 04:19:31;;;;;;;71.10;43.85;;;;;;;;;;5146978;27;20232;-68
2021/04/20 04:22:03;;;;;;;81.28;45.20;;;;;;;;;;5150769;27;20047;-69
2021/04/20 04:24:31;;;;;;;72.63;46.00;;;;;;;;;;5129478;27;20098;-69
2021/04/20 04:26:58;;;;;;;77.00;45.35;;;;;;;;;;5145632;27;20043;-69
2021/04/20 04:29:25;;;;;;;73.82;42.85;;;;;;;;;;5153042;27;20031;-69
2021/04/20 04:31:52;;;;;;;70.78;44.42;;;;;;;;;;5123723;27;20039;-73
2021/04/20 04:34:18;;;;;;;72.32;44.63;;;;;;;;;;5129118;27;20142;-70
2021/04/20 04:36:45;;;;;;;81.38;48.08;;;;;;;;;;5152062;27;20042;-71
2021/04/20 04:39:15;;;;;;;88.15;47.20;;;;;;;;;;5150731;27;20047;-68
2021/04/20 04:41:42;;;;;;;87.15;52.28;;;;;;;;;;5137327;27;20421;-69
2021/04/20 04:44:12;;;;;;;97.28;54.15;;;;;;;;;;5149663;27;20048;-68
2021/04/20 04:46:40;;;;;;;83.80;51.40;;;;;;;;;;5155168;27;20050;-69
2021/04/20 04:49:06;;;;;;;93.25;51.40;;;;;;;;;;5155886;27;20115;-70
2021/04/20 04:51:33;;;;;;;88.05;51.67;;;;;;;;;;5146308;27;20039;-70
2021/04/20 04:54:00;;;;;;;85.07;49.92;;;;;;;;;;5155784;27;20050;-70
2021/04/20 04:56:27;;;;;;;86.43;51.70;;;;;;;;;;5150408;27;20118;-70
2021/04/20 04:58:54;;;;;;;85.88;50.92;;;;;;;;;;5137917;27;20041;-70
2021/04/20 05:01:20;;;;;;;84.72;49.67;;;;;;;;;;5143224;27;20046;-70
2021/04/20 05:03:47;;;;;;;83.45;49.67;;;;;;;;;;5155402;27;20472;-70
2021/04/20 05:06:14;;;;;;;80.43;48.55;;;;;;;;;;5122348;27;20118;-69
2021/04/20 05:08:40;;;;;;;84.68;50.60;;;;;;;;;;5134828;27;20035;-70
2021/04/20 05:11:06;;;;;;;85.25;51.65;;;;;;;;;;5140024;27;20035;-70
2021/04/20 05:13:32;;;;;;;85.38;50.17;;;;;;;;;;5133001;27;20034;-70
2021/04/20 05:16:05;;;;;;;82.13;49.70;;;;;;;;;;5152192;27;20083;-70
2021/04/20 05:18:33;;;;;;;74.57;47.03;;;;;;;;;;5139142;27;20035;-71
2021/04/20 05:20:59;;;;;;;70.38;45.78;;;;;;;;;;5149220;27;20065;-70
2021/04/20 05:23:26;;;;;;;79.05;45.53;;;;;;;;;;5129649;27;20100;-70
2021/04/20 05:25:52;;;;;;;73.78;43.90;;;;;;;;;;5143043;27;20035;-70
2021/04/20 05:28:19;;;;;;;64.50;43.00;;;;;;;;;;5144569;27;20038;-70
2021/04/20 05:30:46;;;;;;;64.35;40.13;;;;;;;;;;5141641;27;20035;-70
2021/04/20 05:33:16;;;;;;;59.08;39.10;;;;;;;;;;5153835;27;20039;-70
2021/04/20 05:35:42;;;;;;;63.55;40.03;;;;;;;;;;5149524;27;20110;-70
2021/04/20 05:38:09;;;;;;;60.58;40.88;;;;;;;;;;5153844;27;20125;-70
2021/04/20 05:40:40;;;;;;;60.25;39.95;;;;;;;;;;5153114;27;20065;-71
2021/04/20 05:43:06;;;;;;;57.58;37.20;;;;;;;;;;5154927;27;20114;-70
2021/04/20 05:45:33;;;;;;;55.42;37.75;;;;;;;;;;5153846;27;20087;-70
2021/04/20 05:48:00;;;;;;;55.67;36.00;;;;;;;;;;5136419;27;20073;-71
2021/04/20 05:50:29;;;;;;;46.30;33.08;;;;;;;;;;5152747;27;20042;-69
2021/04/20 05:52:56;;;;;;;50.25;32.75;;;;;;;;;;5145369;27;20087;-70
2021/04/20 05:55:23;;;;;;;51.50;36.47;;;;;;;;;;5135072;27;20046;-70
2021/04/20 05:57:50;;;;;;;49.30;33.50;;;;;;;;;;5147335;27;20440;-69
2021/04/20 06:00:17;;;;;;;44.67;31.85;;;;;;;;;;5149187;27;20468;-70
2021/04/20 06:02:45;;;;;;;43.28;30.77;;;;;;;;;;5134243;27;20050;-70
2021/04/20 06:05:12;;;;;;;42.83;30.45;;;;;;;;;;5151232;27;20068;-69
2021/04/20 06:07:40;;;;;;;44.22;29.17;;;;;;;;;;5144962;27;20038;-69
2021/04/20 06:10:08;;;;;;;38.38;28.25;;;;;;;;;;5131480;27;20039;-70
2021/04/20 06:12:35;;;;;;;37.13;27.30;;;;;;;;;;5145351;27;20035;-70
2021/04/20 06:15:02;;;;;;;43.40;29.70;;;;;;;;;;5145321;27;20387;-69
2021/04/20 06:17:29;;;;;;;41.53;29.92;;;;;;;;;;5149357;27;20170;-71
2021/04/20 06:19:55;;;;;;;35.58;27.48;;;;;;;;;;5152141;27;20039;-70
2021/04/20 06:22:22;;;;;;;40.55;30.08;;;;;;;;;;5146098;27;20051;-70
2021/04/20 06:24:48;;;;;;;36.72;27.45;;;;;;;;;;5129477;27;20027;-70
2021/04/20 06:27:15;;;;;;;39.95;27.63;;;;;;;;;;5150258;27;20042;-71
2021/04/20 06:29:41;;;;;;;32.05;24.38;;;;;;;;;;5152318;27;20171;-71
2021/04/20 06:32:10;;;;;;;32.90;24.67;;;;;;;;;;5153957;27;20026;-70
2021/04/20 06:34:37;;;;;;;32.95;24.13;;;;;;;;;;5151292;27;20355;-71
2021/04/20 06:37:03;;;;;;;31.77;23.50;;;;;;;;;;5150729;27;20395;-70
2021/04/20 06:39:29;;;;;;;39.92;25.33;;;;;;;;;;5151754;27;20414;-71
2021/04/20 06:41:55;;;;;;;;;;;;;;;;;;5129527;27;20054;-70
2021/04/20 06:44:31;;;;;;;29.13;23.10;;;;;;;;;;5129429;27;20022;-70
2021/04/20 06:47:01;;;;;;;29.05;21.75;;;;;;;;;;5133402;27;20307;-70
2021/04/20 06:49:40;;;;;;;31.27;22.73;;;;;;;;;;5151850;27;20039;-71
2021/04/20 06:52:08;;;;;;;30.65;22.33;;;;;;;;;;5133855;27;20031;-71
2021/04/20 06:54:36;;;;;;;28.90;22.88;;;;;;;;;;5152714;27;20469;-71
2021/04/20 06:57:05;;;;;;;29.60;22.48;;;;;;;;;;5151627;27;20026;-72
2021/04/20 06:59:41;;;;;;;28.27;21.42;;;;;;;;;;5143204;27;20049;-71
2021/04/20 07:02:17;;;;;;;30.73;23.15;;;;;;;;;;5150297;27;20531;-71
2021/04/20 07:04:50;;;;;;;29.58;21.40;;;;;;;;;;5150773;27;20030;-71
2021/04/20 07:07:19;;;;;;;28.25;21.92;;;;;;;;;;5147067;27;20062;-71
2021/04/20 07:09:48;;;;;;;27.13;21.92;;;;;;;;;;5141197;27;20039;-70
2021/04/20 07:12:19;;;;;;;30.65;22.50;;;;;;;;;;5145675;27;20045;-71
2021/04/20 07:14:48;;;;;;;30.33;22.23;;;;;;;;;;5145337;27;20054;-71
2021/04/20 07:17:49;;;;;;;28.40;22.38;;;;;;;;;;5150385;27;20037;-71
2021/04/20 07:20:35;;;;;;;31.70;22.90;;;;;;;;;;5050468;28;20430;-70
2021/04/20 07:23:16;;;;;;;30.27;24.45;;;;;;;;;;5105511;28;20280;-71
2021/04/20 07:25:42;;;;;;;;;;;;;;;;;;5110448;28;20039;-71
2021/04/20 07:28:09;;;;;;;;;;;;;;;;;;5109021;28;19994;-72
2021/04/20 07:30:35;;;;;;;;;;;;;;;;;;5111378;28;19923;-71
2021/04/20 07:33:02;;;;;;;;;;;;;;;;;;5109741;28;20019;-71
2021/04/20 07:35:28;;;;;;;;;;;;;;;;;;5110281;28;19967;-72
2021/04/20 07:37:54;;;;;;;;;;;;;;;;;;5108482;28;19927;-71
2021/04/20 07:40:20;;;;;;;;;;;;;;;;;;5109990;28;19915;-71
2021/04/20 07:42:46;;;;;;;;;;;;;;;;;;5109744;28;19916;-72
2021/04/20 07:45:15;;;;;;;27.80;22.85;;;;;;;;;;5110113;28;19916;-72
2021/04/20 07:47:46;;;;;;;24.02;19.40;;;;;;;;;;5109349;28;20088;-71
2021/04/20 07:50:15;;;;;;;27.25;19.85;;;;;;;;;;5106072;28;20119;-70
2021/04/20 07:52:50;;;;;;;25.45;19.55;;;;;;;;;;5109813;28;20042;-70
2021/04/20 07:55:19;;;;;;;27.52;20.90;;;;;;;;;;5108856;28;20043;-70
2021/04/20 07:57:48;;;;;;;27.40;20.15;;;;;;;;;;5110029;28;20047;-71
2021/04/20 08:00:28;;;;;;;23.85;19.58;;;;;;;;;;5108347;28;20055;-70
2021/04/20 08:02:59;;;;;;;23.98;18.40;;;;;;;;;;5108440;28;20040;-70
2021/04/20 08:05:34;;;;;;;21.20;18.38;;;;;;;;;;5109650;28;20074;-70
2021/04/20 08:08:11;;;;;;;24.88;18.40;;;;;;;;;;5106780;28;20126;-71
2021/04/20 08:10:57;;;;;;;22.73;17.70;;;;;;;;;;5108784;28;20063;-70
2021/04/20 08:13:32;;;;;;;23.10;16.52;;;;;;;;;;5109794;28;20052;-70
2021/04/20 08:16:22;;;;;;;22.92;16.00;;;;;;;;;;5110075;28;20077;-71
2021/04/20 08:19:04;;;;;;;21.13;17.10;;;;;;;;;;5108247;28;20047;-71
2021/04/20 08:21:31;;;;;;;24.48;16.35;;;;;;;;;;5129508;27;20046;-71
2021/04/20 08:23:58;;;;;;;19.13;16.70;;;;;;;;;;5146943;27;20506;-71
2021/04/20 08:26:30;;;;;;;22.88;17.27;;;;;;;;;;5116670;27;20042;-71
2021/04/20 08:29:05;;;;;;;22.92;15.88;;;;;;;;;;5119746;27;20067;-71
2021/04/20 08:31:31;;;;;;;23.27;17.55;;;;;;;;;;5142447;27;20131;-71
2021/04/20 08:34:01;;;;;;;22.90;16.23;;;;;;;;;;5121662;27;20115;-71
2021/04/20 08:36:34;;;;;;;22.02;16.25;;;;;;;;;;5144372;27;20043;-71
2021/04/20 08:39:21;;;;;;;20.48;15.55;;;;;;;;;;5130496;27;20109;-71
2021/04/20 08:41:55;;;;;;;22.08;16.13;;;;;;;;;;5155897;27;20046;-71
2021/04/20 08:44:27;;;;;;;19.25;14.55;;;;;;;;;;5149598;27;20035;-72
2021/04/20 08:47:02;;;;;;;18.85;15.45;;;;;;;;;;5124644;27;20402;-71
2021/04/20 08:49:38;;;;;;;20.75;15.50;;;;;;;;;;5136016;27;20042;-71
2021/04/20 08:52:24;;;;;;;19.77;14.20;;;;;;;;;;5119587;27;20031;-72
2021/04/20 08:54:57;;;;;;;21.13;14.35;;;;;;;;;;5137247;27;20057;-71
2021/04/20 08:57:38;;;;;;;18.17;13.18;;;;;;;;;;5154195;27;20042;-74
2021/04/20 09:00:15;;;;;;;19.65;13.27;;;;;;;;;;5134098;27;20042;-72
2021/04/20 09:03:00;;;;;;;38.17;16.63;;;;;;;;;;5149735;27;20114;-71
2021/04/20 09:05:45;;;;;;;18.92;13.15;;;;;;;;;;5149621;27;20102;-71
2021/04/20 09:08:26;;;;;;;16.33;11.98;;;;;;;;;;5132741;27;20157;-71
2021/04/20 09:11:01;;;;;;;16.42;11.18;;;;;;;;;;5133212;27;20047;-71
2021/04/20 09:13:29;;;;;;;17.23;12.50;;;;;;;;;;5155892;27;20047;-71
2021/04/20 09:16:06;;;;;;;18.02;12.55;;;;;;;;;;5146929;27;20049;-71
2021/04/20 09:18:37;;;;;;;24.35;11.77;;;;;;;;;;5152183;27;20063;-71
2021/04/20 09:21:09;;;;;;;14.88;12.10;;;;;;;;;;5153801;27;20122;-71
2021/04/20 09:23:45;;;;;;;15.43;11.85;;;;;;;;;;5152091;27;20512;-72
2021/04/20 09:26:17;;;;;;;18.05;12.25;;;;;;;;;;5152232;27;20046;-69
2021/04/20 09:29:16;;;;;;;19.77;12.07;;;;;;;;;;5129846;27;20046;-69
2021/04/20 09:31:59;;;;;;;12.10;10.80;;;;;;;;;;5094180;27;20082;-69
2021/04/20 09:34:28;;;;;;;14.90;10.83;;;;;;;;;;5146632;27;20039;-71
2021/04/20 09:36:54;;;;;;;18.20;11.90;;;;;;;;;;5141607;27;20035;-72
2021/04/20 09:39:21;;;;;;;16.30;10.90;;;;;;;;;;5127711;27;20062;-72
2021/04/20 09:41:48;;;;;;;15.75;10.45;;;;;;;;;;5136604;27;20106;-72
2021/04/20 09:44:17;;;;;;;17.23;10.73;;;;;;;;;;5154019;27;20057;-72
2021/04/20 09:46:49;;;;;;;13.30;10.45;;;;;;;;;;5154420;27;20045;-72
2021/04/20 09:49:18;;;;;;;16.80;10.48;;;;;;;;;;5134571;27;20037;-72
2021/04/20 09:51:48;;;;;;;13.13;10.70;;;;;;;;;;5134533;27;20054;-72
2021/04/20 09:54:37;;;;;;;15.10;10.75;;;;;;;;;;5154181;27;20050;-71
2021/04/20 09:57:06;;;;;;;13.15;10.15;;;;;;;;;;5154908;27;20433;-71
2021/04/20 09:59:39;;;;;;;15.15;9.82;;;;;;;;;;5153617;27;20040;-71
2021/04/20 10:02:27;;;;;;;14.88;10.45;;;;;;;;;;5152970;27;20039;-72
2021/04/20 10:05:04;;;;;;;13.55;10.32;;;;;;;;;;5130169;27;20473;-72
2021/04/20 10:07:49;;;;;;;19.92;9.70;;;;;;;;;;5146157;27;20039;-71
2021/04/20 10:10:28;;;;;;;15.65;10.02;;;;;;;;;;5149008;27;20069;-72
2021/04/20 10:13:00;;;;;;;12.35;8.73;;;;;;;;;;5134584;27;20035;-71
2021/04/20 10:15:29;;;;;;;15.65;9.50;;;;;;;;;;5146805;27;20122;-71
2021/04/20 10:18:02;;;;;;;17.20;10.45;;;;;;;;;;5149043;27;20062;-71
2021/04/20 10:20:37;;;;;;;14.07;10.18;;;;;;;;;;5118952;27;20051;-71
2021/04/20 10:23:06;;;;;;;11.50;8.98;;;;;;;;;;5135368;27;20117;-73
2021/04/20 10:25:39;;;;;;;14.63;9.27;;;;;;;;;;5133525;27;20038;-72
2021/04/20 10:28:29;;;;;;;14.68;9.32;;;;;;;;;;5134115;27;20052;-70
2021/04/20 10:30:59;;;;;;;14.63;9.40;;;;;;;;;;5149371;27;20039;-70
2021/04/20 10:33:25;;;;;;;14.88;9.68;;;;;;;;;;5146652;27;20046;-70
2021/04/20 10:36:00;;;;;;;15.90;8.80;;;;;;;;;;5140939;27;20035;-70
2021/04/20 10:38:31;;;;;;;13.55;8.65;;;;;;;;;;5137133;27;20049;-70
2021/04/20 10:40:57;;;;;;;23.38;9.35;;;;;;;;;;5142722;27;20046;-70
2021/04/20 10:43:25;;;;;;;11.73;8.38;;;;;;;;;;5127432;27;20035;-70
2021/04/20 10:45:53;;;;;;;12.82;8.98;;;;;;;;;;5149388;27;20046;-70
2021/04/20 10:48:23;;;;;;;15.43;9.05;;;;;;;;;;5109869;27;20133;-70
2021/04/20 10:50:51;;;;;;;13.50;8.40;;;;;;;;;;5108173;27;20039;-70
2021/04/20 10:53:21;;;;;;;14.40;8.75;;;;;;;;;;5127888;27;20046;-70
2021/04/20 10:55:53;;;;;;;19.15;8.50;;;;;;;;;;5148018;27;20043;-74
2021/04/20 10:58:24;;;;;;;11.75;7.50;;;;;;;;;;5148669;27;20042;-76
2021/04/20 11:00:52;;;;;;;13.82;8.18;;;;;;;;;;5149203;27;20412;-74
2021/04/20 11:03:31;;;;;;;11.27;8.05;;;;;;;;;;5115390;27;20162;-70
2021/04/20 11:05:58;;;;;;;12.55;7.57;;;;;;;;;;5148820;27;20073;-72
2021/04/20 11:08:35;;;;;;;11.65;7.68;;;;;;;;;;5130956;27;20050;-72
2021/04/20 11:11:02;;;;;;;12.88;7.60;;;;;;;;;;5130897;27;20107;-71
2021/04/20 11:13:38;;;;;;;12.50;7.97;;;;;;;;;;5148318;27;20451;-72
2021/04/20 11:16:09;;;;;;;14.48;7.78;;;;;;;;;;5129987;27;20067;-73
2021/04/20 11:18:37;;;;;;;15.02;7.63;;;;;;;;;;5132308;27;20054;-73
2021/04/20 11:21:07;;;;;;;13.10;8.15;;;;;;;;;;5151394;27;20047;-74
2021/04/20 11:23:37;;;;;;;13.15;8.25;;;;;;;;;;5130754;27;20039;-73
2021/04/20 11:26:10;;;;;;;12.43;8.95;;;;;;;;;;5149946;27;20066;-74
2021/04/20 11:28:43;;;;;;;12.70;7.77;;;;;;;;;;5146715;27;20031;-73
2021/04/20 11:31:14;;;;;;;11.70;7.97;;;;;;;;;;5122990;27;20332;-73
2021/04/20 11:33:54;;;;;;;13.93;8.57;;;;;;;;;;5148753;27;20505;-73
2021/04/20 11:36:24;;;;;;;13.45;7.97;;;;;;;;;;5143516;27;20039;-72
2021/04/20 11:38:53;;;;;;;11.30;6.97;;;;;;;;;;5145923;27;20054;-73
2021/04/20 11:41:22;;;;;;;13.52;6.55;;;;;;;;;;5135142;27;20051;-73
2021/04/20 11:44:01;;;;;;;13.85;7.35;;;;;;;;;;5127776;27;20047;-73
2021/04/20 11:46:28;;;;;;;11.13;7.15;;;;;;;;;;5147208;27;20043;-73
2021/04/20 11:48:55;;;;;;;10.55;6.88;;;;;;;;;;5142705;27;20053;-73
2021/04/20 11:51:22;;;;;;;13.45;6.75;;;;;;;;;;5150662;27;20156;-73
2021/04/20 11:53:49;;;;;;;11.07;7.25;;;;;;;;;;5121524;27;20133;-73
2021/04/20 11:56:16;;;;;;;12.13;7.10;;;;;;;;;;5132178;27;20066;-73
2021/04/20 11:58:43;;;;;;;12.85;6.18;;;;;;;;;;5139871;27;20400;-73
2021/04/20 12:01:12;;;;;;;8.82;5.53;;;;;;;;;;5138043;27;20508;-72
2021/04/20 12:03:44;;;;;;;11.65;5.60;;;;;;;;;;5149581;27;20091;-72
2021/04/20 12:06:11;;;;;;;11.10;5.85;;;;;;;;;;5152403;27;20046;-72
2021/04/20 12:08:38;;;;;;;11.35;6.45;;;;;;;;;;5132973;27;20091;-73
2021/04/20 12:11:07;;;;;;;8.57;4.50;;;;;;;;;;5133028;27;20071;-72
2021/04/20 12:13:34;;;;;;;10.13;5.28;;;;;;;;;;5149365;27;20039;-72
2021/04/20 12:16:09;;;;;;;11.73;5.47;;;;;;;;;;5155982;27;20063;-72
2021/04/20 12:18:36;;;;;;;8.30;5.07;;;;;;;;;;5155660;27;20042;-72
2021/04/20 12:21:06;;;;;;;9.48;4.28;;;;;;;;;;5155103;27;20047;-72
2021/04/20 12:23:33;;;;;;;8.57;4.18;;;;;;;;;;5151671;27;20489;-72
2021/04/20 12:26:01;;;;;;;7.90;4.03;;;;;;;;;;5136786;27;20393;-72
2021/04/20 12:28:29;;;;;;;7.15;4.47;;;;;;;;;;5130930;27;20047;-72
2021/04/20 12:30:55;;;;;;;8.82;4.65;;;;;;;;;;5141606;27;20031;-72
2021/04/20 12:33:22;;;;;;;11.38;5.68;;;;;;;;;;5155708;27;20049;-72
2021/04/20 12:35:50;;;;;;;10.85;5.90;;;;;;;;;;5157100;27;20043;-72
2021/04/20 12:38:19;;;;;;;12.45;6.13;;;;;;;;;;5155433;27;20038;-72
2021/04/20 12:40:45;;;;;;;72.13;9.95;;;;;;;;;;5154992;27;20054;-72
2021/04/20 12:43:12;;;;;;;12.20;4.20;;;;;;;;;;5153491;27;20050;-72
2021/04/20 12:45:40;;;;;;;7.20;3.28;;;;;;;;;;5116782;27;20124;-72
2021/04/20 12:48:07;;;;;;;5.50;3.55;;;;;;;;;;5154602;27;20046;-72
2021/04/20 12:50:41;;;;;;;5.57;3.38;;;;;;;;;;5155384;27;20057;-73
2021/04/20 12:53:07;;;;;;;5.63;3.15;;;;;;;;;;5156073;27;20038;-72
2021/04/20 12:55:39;;;;;;;3.63;2.83;;;;;;;;;;5134822;27;20370;-72
2021/04/20 12:58:12;;;;;;;4.82;2.92;;;;;;;;;;5156297;27;20077;-72
2021/04/20 13:00:39;;;;;;;5.80;2.53;;;;;;;;;;5154958;27;20240;-72
2021/04/20 13:03:06;;;;;;;7.38;2.70;;;;;;;;;;5136816;27;20083;-72
2021/04/20 13:05:36;;;;;;;6.28;2.78;;;;;;;;;;5154803;27;20046;-72
2021/04/20 13:08:05;;;;;;;4.32;2.58;;;;;;;;;;5137453;27;20511;-72
2021/04/20 13:10:31;;;;;;;7.13;2.72;;;;;;;;;;5155327;27;20171;-73
2021/04/20 13:13:02;;;;;;;8.63;3.55;;;;;;;;;;5155398;27;20039;-72
2021/04/20 13:15:29;;;;;;;4.10;3.00;;;;;;;;;;5154381;27;20434;-72
2021/04/20 13:17:57;;;;;;;5.28;3.22;;;;;;;;;;5131013;27;20045;-72
2021/04/20 13:20:30;;;;;;;6.57;3.08;;;;;;;;;;5116066;27;20436;-72
2021/04/20 13:23:17;;;;;;;8.55;3.00;;;;;;;;;;5149625;27;20486;-72
2021/04/20 13:25:47;;;;;;;11.05;2.80;;;;;;;;;;5154069;27;20038;-71
2021/04/20 13:28:13;;;;;;;5.90;3.15;;;;;;;;;;5137182;27;20080;-71
2021/04/20 13:30:39;;;;;;;7.47;3.03;;;;;;;;;;5152960;27;20039;-71
2021/04/20 13:33:05;;;;;;;11.48;3.72;;;;;;;;;;5127497;27;20541;-72
2021/04/20 13:35:32;;;;;;;5.88;2.95;;;;;;;;;;5136062;27;20405;-72
2021/04/20 13:37:59;;;;;;;3.60;2.72;;;;;;;;;;5127045;27;20083;-72
2021/04/20 13:40:27;;;;;;;5.05;3.30;;;;;;;;;;5147111;27;20386;-74
2021/04/20 13:42:58;;;;;;;6.40;3.40;;;;;;;;;;5148942;27;20114;-72
2021/04/20 13:45:27;;;;;;;7.47;3.72;;;;;;;;;;5133217;27;20041;-72
2021/04/20 13:47:54;;;;;;;7.63;3.47;;;;;;;;;;5150977;27;20057;-72
2021/04/20 13:50:32;;;;;;;10.15;3.75;;;;;;;;;;5135522;27;20042;-71
2021/04/20 13:53:04;;;;;;;6.70;3.75;;;;;;;;;;5154639;27;20480;-71
2021/04/20 13:55:32;;;;;;;9.30;3.15;;;;;;;;;;5153992;27;20041;-71
2021/04/20 13:58:01;;;;;;;7.43;3.50;;;;;;;;;;5139322;27;20039;-71
2021/04/20 14:00:31;;;;;;;6.80;3.45;;;;;;;;;;5153410;27;20070;-71
2021/04/20 14:02:59;;;;;;;6.18;3.08;;;;;;;;;;5150255;27;20068;-71
2021/04/20 14:05:31;;;;;;;5.57;3.40;;;;;;;;;;5146826;27;20027;-71
2021/04/20 14:07:58;;;;;;;7.70;3.20;;;;;;;;;;5144103;27;20058;-71
2021/04/20 14:10:26;;;;;;;6.18;3.47;;;;;;;;;;5139985;27;20311;-71
2021/04/20 14:12:59;;;;;;;6.15;3.50;;;;;;;;;;5144828;27;20053;-71
2021/04/20 14:15:30;;;;;;;7.30;3.47;;;;;;;;;;5122007;27;20049;-71
2021/04/20 14:17:59;;;;;;;11.35;3.78;;;;;;;;;;5132297;27;20465;-71
2021/04/20 14:20:28;;;;;;;5.70;3.65;;;;;;;;;;5146479;27;20037;-71
2021/04/20 14:22:56;;;;;;;7.80;3.30;;;;;;;;;;5144666;27;20091;-71
2021/04/20 14:25:22;;;;;;;9.82;3.53;;;;;;;;;;5141923;27;20077;-71
2021/04/20 14:27:55;;;;;;;6.72;3.30;;;;;;;;;;5143353;27;20418;-71
2021/04/20 14:30:23;;;;;;;7.60;3.35;;;;;;;;;;5149460;27;20038;-71
2021/04/20 14:32:50;;;;;;;9.02;3.45;;;;;;;;;;5143768;27;20106;-71
2021/04/20 14:35:24;;;;;;;5.68;3.67;;;;;;;;;;5144361;27;20058;-71
2021/04/20 14:37:51;;;;;;;7.63;3.17;;;;;;;;;;5127314;27;20043;-71
2021/04/20 14:40:17;;;;;;;7.82;2.85;;;;;;;;;;5129302;27;20069;-71